Data for 09/18/2017

Time Sea-Level Adjusted Pressure Absolute Pressure Temperature Relative Humidity Dew Point   
(mb) (inHg) (mb) (inHg) (C) (F) (%) (C) (F)
00:05 1015 29.97 844 24.92 8.2 46.8 49 -1.9 28.5
00:10 1015 29.97 844 24.92 8.2 46.8 49 -1.9 28.6
00:15 1015 29.97 844 24.92 8.3 46.9 48 -2 28.3
00:20 1015 29.97 844 24.92 8.1 46.6 49 -1.8 28.7
00:25 1015 29.97 844 24.92 8 46.3 50 -1.9 28.6
00:30 1015 29.97 844 24.92 7.8 46.1 50 -1.9 28.5
00:35 1015 29.97 844 24.92 7.8 46 51 -1.8 28.8
00:40 1015 29.97 844 24.92 7.7 45.8 51 -1.7 29
00:45 1015 29.97 844 24.92 7.6 45.8 51 -1.7 28.9
00:50 1015 29.97 844 24.92 7.5 45.6 51 -1.9 28.7
00:55 1015 29.97 844 24.92 7.6 45.7 50 -2.1 28.2
01:00 1015 29.97 844 24.92 7.9 46.2 49 -2 28.3
01:05 1015 29.97 844 24.92 8 46.4 50 -1.9 28.6
01:10 1015 29.97 844 24.92 7.9 46.3 50 -1.8 28.8
01:15 1015 29.97 844 24.92 7.8 46 50 -1.9 28.7
01:20 1015 29.97 844 24.92 7.7 45.8 50 -1.9 28.5
01:25 1015 29.97 844 24.92 7.7 45.8 50 -2.1 28.3
01:30 1014 29.94 844 24.92 7.8 46 50 -1.9 28.6
01:35 1014 29.94 844 24.92 7.7 45.9 51 -1.9 28.6
01:40 1014 29.94 844 24.92 7.6 45.7 51 -1.9 28.5
01:45 1014 29.94 844 24.92 7.6 45.7 51 -1.9 28.5
01:50 1014 29.94 844 24.92 7.6 45.7 50 -2 28.3
01:55 1014 29.94 843 24.89 7.6 45.7 51 -1.9 28.6
02:00 1014 29.94 843 24.89 7.6 45.6 52 -1.7 29
02:05 1014 29.94 843 24.89 7.4 45.4 52 -1.7 28.9
02:10 1014 29.94 843 24.89 7.4 45.3 51 -2 28.4
02:15 1014 29.94 843 24.89 7.6 45.7 51 -1.9 28.5
02:20 1014 29.94 843 24.89 7.8 46.1 50 -2.1 28.3
02:25 1014 29.94 843 24.89 8 46.4 49 -2.1 28.2
02:30 1014 29.94 843 24.89 8.3 46.9 47 -2.3 27.8
02:35 1014 29.94 843 24.89 8.6 47.5 47 -2.1 28.2
02:40 1014 29.94 843 24.89 8.7 47.6 46 -2.3 27.9
02:45 1014 29.94 843 24.89 8.8 47.8 47 -2 28.5
02:50 1014 29.94 843 24.89 8.8 47.8 46 -2.1 28.3
02:55 1014 29.94 843 24.89 8.8 47.8 46 -2.1 28.2
03:00 1014 29.94 843 24.89 8.9 48 46 -2.1 28.2
03:05 1014 29.94 843 24.89 9 48.2 46 -2.1 28.3
03:10 1014 29.94 843 24.89 9.1 48.4 46 -1.9 28.6
03:15 1014 29.94 843 24.89 8.9 47.9 48 -1.4 29.4
03:20 1014 29.94 843 24.89 8.6 47.5 49 -1.5 29.3
03:25 1014 29.94 843 24.89 8.7 47.6 48 -1.8 28.8
03:30 1014 29.94 843 24.89 8.7 47.7 48 -1.7 28.9
03:35 1014 29.94 843 24.89 8.7 47.6 48 -1.6 29.2
03:40 1014 29.94 843 24.89 8.6 47.5 47 -2 28.5
03:45 1014 29.94 843 24.89 8.7 47.6 48 -1.8 28.8
03:50 1014 29.94 843 24.89 8.6 47.5 49 -1.4 29.5
03:55 1014 29.94 843 24.89 8.5 47.2 49 -1.7 29
04:00 1014 29.94 843 24.89 8.5 47.3 50 -1.2 29.8
04:05 1014 29.94 843 24.89 8.3 46.9 50 -1.4 29.5
04:10 1014 29.94 843 24.89 8.3 46.9 52 -1 30.2
04:15 1014 29.94 843 24.89 8.3 47 49 -1.9 28.6
04:20 1014 29.94 843 24.89 8.6 47.5 48 -1.9 28.6
04:25 1013 29.91 843 24.89 8.8 47.8 48 -1.7 28.9
04:30 1013 29.91 843 24.89 8.7 47.7 48 -1.7 29
04:35 1013 29.91 843 24.89 8.9 47.9 47 -1.7 28.9
04:40 1013 29.91 843 24.89 8.9 48 47 -1.7 29
04:45 1013 29.91 843 24.89 9 48.2 47 -1.8 28.7
04:50 1013 29.91 843 24.89 8.9 48.1 49 -1.2 29.9
04:55 1013 29.91 843 24.89 8.7 47.6 50 -1.2 29.8
05:00 1013 29.91 843 24.89 8.7 47.6 50 -1 30.1
05:05 1013 29.91 842 24.86 8.6 47.5 49 -1.4 29.5
05:10 1013 29.91 842 24.86 8.8 47.8 53 -0.3 31.4
05:15 1013 29.91 842 24.86 8.6 47.5 52 -0.7 30.7
05:20 1013 29.91 842 24.86 8.6 47.4 50 -1.1 30
05:25 1013 29.91 842 24.86 8.9 47.9 51 -0.8 30.6
05:30 1013 29.91 842 24.86 9 48.1 53 -0.2 31.7
05:35 1013 29.91 842 24.86 8.6 47.4 52 -0.7 30.8
05:40 1013 29.91 842 24.86 8.6 47.5 52 -0.7 30.8
05:45 1013 29.91 842 24.86 8.4 47.1 54 -0.4 31.4
05:50 1013 29.91 842 24.86 8.3 46.9 54 -0.3 31.4
05:55 1013 29.91 842 24.86 8.2 46.8 57 0.3 32.6
06:00 1013 29.91 842 24.86 8 46.3 59 0.4 32.7
06:05 1013 29.91 842 24.86 7.9 46.2 57 0 32.1
06:10 1013 29.91 842 24.86 8.1 46.5 53 -0.8 30.6
06:15 1013 29.91 842 24.86 8.8 47.8 51 -0.7 30.7
06:20 1013 29.91 842 24.86 9 48.3 51 -0.5 31
06:25 1013 29.91 842 24.86 8.9 48.1 52 -0.3 31.5
06:30 1013 29.91 842 24.86 8.8 47.8 52 -0.4 31.2
06:35 1013 29.91 842 24.86 8.8 47.9 52 -0.3 31.4
06:40 1013 29.91 842 24.86 8.8 47.8 54 0.1 32.1
06:45 1013 29.91 842 24.86 8.6 47.4 56 0.2 32.4
06:50 1013 29.91 842 24.86 8.6 47.5 55 0.2 32.3
06:55 1013 29.91 842 24.86 8.6 47.5 56 0.3 32.5
07:00 1012 29.88 842 24.86 8.6 47.4 53 -0.5 31
07:05 1012 29.88 842 24.86 9 48.2 51 -0.5 31.1
07:10 1012 29.88 842 24.86 9.2 48.5 49 -0.9 30.4
07:15 1013 29.91 842 24.86 9.5 49.2 47 -1.3 29.6
07:20 1012 29.88 842 24.86 9.7 49.5 47 -1.2 29.9
07:25 1012 29.88 842 24.86 9.7 49.5 47 -1 30.3
07:30 1012 29.88 841 24.83 9.7 49.4 48 -0.9 30.4
07:35 1012 29.88 841 24.83 9.7 49.5 45 -1.6 29.2
07:40 1012 29.88 841 24.83 10 50.1 44 -1.5 29.3
07:45 1012 29.88 841 24.83 10.2 50.4 43 -1.6 29.1
07:50 1012 29.88 841 24.83 10.1 50.2 44 -1.5 29.2
07:55 1012 29.88 841 24.83 10.2 50.3 44 -1.6 29.1
08:00 1012 29.88 841 24.83 10.4 50.7 43 -1.7 29
08:05 1012 29.88 841 24.83 10.6 51.1 43 -1.5 29.4
08:10 1012 29.88 841 24.83 10.7 51.3 41 -2 28.4
08:15 1012 29.88 841 24.83 11 51.9 40 -2.1 28.2
08:20 1012 29.88 841 24.83 11.2 52.2 40 -1.7 28.9
08:25 1012 29.88 841 24.83 11.2 52.1 43 -1 30.2
08:30 1012 29.88 841 24.83 10.8 51.4 44 -0.9 30.4
08:35 1012 29.88 841 24.83 10.8 51.4 45 -0.7 30.8
08:40 1012 29.88 841 24.83 10.9 51.6 43 -1 30.1
08:45 1012 29.88 841 24.83 11.1 51.9 42 -1.2 29.9
08:50 1012 29.88 841 24.83 11.4 52.5 41 -1.4 29.5
08:55 1012 29.88 841 24.83 11.5 52.6 42 -0.9 30.3
09:00 1012 29.88 841 24.83 11.4 52.5 42 -1 30.1
09:05 1012 29.88 841 24.83 11.4 52.6 40 -1.6 29.1
09:10 1012 29.88 841 24.83 11.7 53.1 41 -0.9 30.4
09:15 1012 29.88 841 24.83 11.8 53.3 41 -0.8 30.5
09:20 1012 29.88 841 24.83 12 53.7 39 -1.3 29.6
09:25 1012 29.88 841 24.83 12.4 54.4 37 -1.9 28.5
09:30 1012 29.88 841 24.83 12.8 55.1 38 -1.2 29.9
09:35 1012 29.88 841 24.83 12.9 55.1 37 -1.4 29.5
09:40 1012 29.88 841 24.83 13.2 55.7 36 -1.4 29.5
09:45 1011 29.85 841 24.83 13.4 56.1 37 -1.1 30
09:50 1012 29.88 841 24.83 13.5 56.3 38 -0.6 31
09:55 1012 29.88 841 24.83 13.4 56.1 37 -0.8 30.5
10:00 1012 29.88 841 24.83 13.3 55.9 39 -0.2 31.6
10:05 1012 29.88 841 24.83 13.3 56 40 0 32.1
10:10 1012 29.88 841 24.83 13.5 56.2 38 -0.6 30.9
10:15 1012 29.88 841 24.83 13.9 57 34 -1.5 29.3
10:20 1012 29.88 841 24.83 14.5 58 35 -0.6 31
10:25 1012 29.88 841 24.83 14.3 57.8 40 1.1 34
10:30 1012 29.88 841 24.83 13.5 56.4 44 1.6 34.9
10:35 1012 29.88 841 24.83 13.2 55.8 49 2.7 36.8
10:40 1012 29.88 841 24.83 12.6 54.6 55 3.8 38.9
10:45 1012 29.88 841 24.83 11.7 53.1 57 3.5 38.4
10:50 1012 29.88 842 24.86 11.6 52.9 44 -0.3 31.4
10:55 1012 29.88 842 24.86 14.4 57.8 34 -1.3 29.6
11:00 1013 29.91 842 24.86 15 59 35 -0.3 31.4
11:05 1013 29.91 842 24.86 15 58.9 35 -0.1 31.8
11:10 1013 29.91 842 24.86 14.8 58.7 38 0.6 33.1
11:15 1013 29.91 842 24.86 14.6 58.2 39 0.8 33.5
11:20 1013 29.91 842 24.86 14.5 58 39 0.8 33.5
11:25 1012 29.88 842 24.86 14.5 58.2 37 -0 32
11:30 1012 29.88 842 24.86 14.8 58.6 38 0.7 33.2
11:35 1012 29.88 842 24.86 14.9 58.9 37 0.6 33
11:40 1012 29.88 842 24.86 15.1 59.1 36 0.2 32.4
11:45 1012 29.88 842 24.86 15.1 59.2 37 0.6 33
11:50 1012 29.88 842 24.86 15.1 59.2 38 1.1 34
11:55 1012 29.88 842 24.86 15.3 59.6 38 1.2 34.1
12:00 1012 29.88 842 24.86 15.4 59.8 37 0.9 33.6
12:05 1012 29.88 842 24.86 15.4 59.7 36 0.7 33.2
12:10 1012 29.88 842 24.86 15.5 59.9 36 0.7 33.2
12:15 1012 29.88 841 24.83 15.4 59.6 36 0.3 32.5
12:20 1012 29.88 841 24.83 15.3 59.5 37 0.9 33.7
12:25 1012 29.88 841 24.83 15.3 59.5 38 1.3 34.3
12:30 1012 29.88 841 24.83 15.1 59.2 37 0.7 33.3
12:35 1012 29.88 841 24.83 15.3 59.6 36 0.6 33
12:40 1012 29.88 841 24.83 15.4 59.6 35 0 32.1
12:45 1012 29.88 841 24.83 15.5 59.9 36 0.5 32.9
12:50 1012 29.88 841 24.83 15.6 60.1 34 0.1 32.1
12:55 1012 29.88 841 24.83 15.7 60.2 35 0.3 32.5
13:00 1011 29.85 841 24.83 15.9 60.7 33 -0.2 31.6
13:05 1011 29.85 841 24.83 16.1 60.9 33 -0.2 31.6
13:10 1011 29.85 841 24.83 16 60.8 33 0 32
13:15 1011 29.85 840 24.81 16.1 61 33 -0.1 31.8
13:20 1011 29.85 840 24.81 16.1 61 33 0 32
13:25 1011 29.85 840 24.81 16.3 61.3 33 0.1 32.2
13:30 1011 29.85 840 24.81 16 60.7 34 0.1 32.2
13:35 1011 29.85 840 24.81 16 60.8 33 -0.1 31.9
13:40 1011 29.85 840 24.81 15.9 60.7 33 -0.2 31.6
13:45 1011 29.85 840 24.81 16.2 61.1 33 -0 32
13:50 1011 29.85 840 24.81 16.3 61.3 33 0.1 32.2
13:55 1010 29.83 840 24.81 16.3 61.3 34 0.4 32.7
14:00 1010 29.83 840 24.81 16.3 61.3 33 0.3 32.6
14:05 1010 29.83 839 24.78 16.4 61.6 34 0.5 32.9
14:10 1010 29.83 839 24.78 16.6 61.9 33 0.5 32.9
14:15 1010 29.83 839 24.78 16.7 62 33 0.4 32.7
14:20 1010 29.83 839 24.78 16.7 62.1 33 0.5 32.9
14:25 1010 29.83 839 24.78 16.6 61.9 32 -0.2 31.6
14:30 1010 29.83 839 24.78 16.5 61.6 31 -0.7 30.8
14:35 1010 29.83 839 24.78 16.3 61.4 31 -0.5 31.1
14:40 1010 29.83 839 24.78 16.2 61.2 33 -0.1 31.8
14:45 1010 29.83 839 24.78 16.1 60.9 33 -0.3 31.4
14:50 1010 29.83 839 24.78 15.9 60.6 33 -0.2 31.6
14:55 1010 29.83 839 24.78 15.8 60.4 36 0.9 33.5
15:00 1010 29.83 839 24.78 15.5 59.9 37 0.9 33.6
15:05 1010 29.83 839 24.78 15.3 59.5 38 1.1 33.9
15:10 1010 29.83 839 24.78 15.1 59.2 39 1.3 34.3
15:15 1010 29.83 839 24.78 15 59 38 1 33.8
15:20 1010 29.83 839 24.78 15 59 38 0.8 33.4
15:25 1010 29.83 839 24.78 14.9 58.8 38 0.7 33.3
15:30 1010 29.83 839 24.78 14.7 58.5 40 1.3 34.4
15:35 1010 29.83 839 24.78 14.6 58.3 39 1 33.8
15:40 1010 29.83 839 24.78 14.5 58.1 40 1.2 34.1
15:45 1010 29.83 839 24.78 14.4 58 40 1.1 34
15:50 1010 29.83 839 24.78 14.4 57.8 40 0.9 33.7
15:55 1010 29.83 839 24.78 14.3 57.8 41 1.4 34.5
16:00 1010 29.83 839 24.78 14.2 57.5 42 1.4 34.5
16:05 1010 29.83 839 24.78 14.1 57.4 42 1.3 34.4
16:10 1010 29.83 839 24.78 14.1 57.3 42 1.4 34.5
16:15 1010 29.83 839 24.78 14 57.2 43 1.6 34.9
16:20 1010 29.83 839 24.78 13.9 57.1 44 1.8 35.3
16:25 1009 29.8 839 24.78 13.9 57 43 1.7 35.1
16:30 1009 29.8 839 24.78 13.9 57.1 43 1.7 35
16:35 1009 29.8 839 24.78 13.9 57 44 1.9 35.3
16:40 1009 29.8 839 24.78 13.9 57.1 43 1.8 35.2
16:45 1009 29.8 839 24.78 13.9 57.1 43 1.5 34.8
16:50 1009 29.8 839 24.78 14 57.2 43 1.7 35
16:55 1010 29.83 839 24.78 14 57.2 43 1.7 35.1
17:00 1010 29.83 839 24.78 14 57.1 42 1.2 34.2
17:05 1010 29.83 839 24.78 14.1 57.3 42 1.5 34.7
17:10 1010 29.83 839 24.78 14 57.1 43 1.7 35
17:15 1010 29.83 839 24.78 13.8 56.9 43 1.6 34.9
17:20 1009 29.8 839 24.78 13.7 56.7 45 2.1 35.8
17:25 1009 29.8 839 24.78 13.6 56.5 46 2.2 35.9
17:30 1010 29.83 839 24.78 13.5 56.2 46 2 35.6
17:35 1010 29.83 839 24.78 13.5 56.3 45 1.8 35.2
17:40 1010 29.83 839 24.78 13.5 56.4 45 2 35.6
17:45 1010 29.83 839 24.78 13.5 56.2 46 2.3 36.1
17:50 1010 29.83 839 24.78 13.3 56 48 2.5 36.5
17:55 1010 29.83 839 24.78 13.1 55.5 49 2.7 36.9
18:00 1010 29.83 839 24.78 12.9 55.1 49 2.5 36.5
18:05 1010 29.83 839 24.78 12.8 55.1 49 2.5 36.5
18:10 1010 29.83 839 24.78 12.8 55 50 2.6 36.7
18:15 1010 29.83 839 24.78 12.7 54.9 50 2.6 36.6
18:20 1010 29.83 839 24.78 12.7 54.8 49 2.3 36.1
18:25 1010 29.83 839 24.78 12.7 54.9 49 2.2 36
18:30 1010 29.83 839 24.78 12.7 54.9 48 2.1 35.9
18:35 1010 29.83 839 24.78 12.7 54.9 51 2.8 37.1
18:40 1010 29.83 839 24.78 12.5 54.4 58 4.4 39.9
18:45 1010 29.83 839 24.78 11.4 52.5 66 5.4 41.6
18:50 1010 29.83 840 24.81 10.1 50.2 73 5.4 41.7
18:55 1010 29.83 840 24.81 9.2 48.5 78 5.5 41.9
19:00 1010 29.83 840 24.81 8.7 47.6 81 5.5 41.9
19:05 1011 29.85 840 24.81 8.5 47.2 82 5.6 42.2
19:10 1011 29.85 840 24.81 8.4 47.1 83 5.7 42.3
19:15 1011 29.85 840 24.81 8.2 46.8 84 5.6 42.1
19:20 1011 29.85 840 24.81 8.2 46.7 84 5.6 42.1
19:25 1011 29.85 840 24.81 8.1 46.5 85 5.7 42.2
19:30 1011 29.85 840 24.81 7.9 46.3 86 5.7 42.2
19:35 1011 29.85 840 24.81 7.8 46 86 5.6 42.2
19:40 1010 29.83 840 24.81 7.6 45.6 88 5.7 42.3
19:45 1011 29.85 840 24.81 7.6 45.7 88 5.8 42.4
19:50 1011 29.85 840 24.81 7.6 45.6 88 5.7 42.2
19:55 1011 29.85 840 24.81 7.3 45.2 89 5.6 42.1
20:00 1011 29.85 840 24.81 7.1 44.8 89 5.5 41.9
20:05 1011 29.85 840 24.81 7 44.6 89 5.3 41.6
20:10 1011 29.85 840 24.81 7 44.6 89 5.4 41.7
20:15 1011 29.85 840 24.81 6.9 44.5 89 5.3 41.5
20:20 1011 29.85 840 24.81 6.9 44.4 90 5.3 41.6
20:25 1011 29.85 840 24.81 7 44.5 89 5.3 41.5
20:30 1011 29.85 840 24.81 6.9 44.5 89 5.2 41.4
20:35 1011 29.85 840 24.81 7.1 44.7 89 5.4 41.7
20:40 1011 29.85 840 24.81 7.1 44.8 89 5.4 41.8
20:45 1011 29.85 840 24.81 7.2 44.9 89 5.5 41.9
20:50 1011 29.85 840 24.81 7.2 44.9 88 5.4 41.7
20:55 1011 29.85 840 24.81 7.1 44.8 89 5.4 41.7
21:00 1011 29.85 840 24.81 7.2 44.9 85 4.8 40.7
21:05 1011 29.85 840 24.81 7.4 45.3 83 4.7 40.4
21:10 1010 29.83 840 24.81 7.5 45.4 82 4.6 40.3
21:15 1010 29.83 840 24.81 7.3 45.1 84 4.8 40.6
21:20 1010 29.83 839 24.78 7.4 45.3 81 4.4 39.9
21:25 1010 29.83 839 24.78 7.5 45.5 77 3.7 38.6
21:30 1010 29.83 839 24.78 7.7 45.9 75 3.6 38.4
21:35 1010 29.83 839 24.78 7.9 46.2 71 3.1 37.5
21:40 1010 29.83 839 24.78 8.1 46.7 72 3.3 38
21:45 1010 29.83 839 24.78 8.3 46.9 73 3.6 38.6
21:50 1010 29.83 840 24.81 8 46.4 79 4.5 40.1
21:55 1010 29.83 840 24.81 7.7 45.8 77 3.9 39
22:00 1010 29.83 840 24.81 7.6 45.7 77 3.9 39.1
22:05 1010 29.83 839 24.78 7.6 45.7 76 3.7 38.7
22:10 1010 29.83 839 24.78 7.7 45.9 76 3.8 38.8
22:15 1010 29.83 839 24.78 7.7 45.8 76 3.7 38.7
22:20 1010 29.83 839 24.78 7.6 45.8 77 3.9 39
22:25 1010 29.83 839 24.78 7.6 45.7 77 4 39.1
22:30 1010 29.83 839 24.78 7.6 45.7 79 4.2 39.6
22:35 1010 29.83 839 24.78 7.5 45.6 80 4.3 39.8
22:40 1010 29.83 839 24.78 7.5 45.5 82 4.5 40.2
22:45 1010 29.83 840 24.81 7.4 45.4 83 4.7 40.5
22:50 1010 29.83 840 24.81 7.4 45.3 83 4.8 40.6
22:55 1010 29.83 840 24.81 7.4 45.2 84 4.8 40.6
23:00 1010 29.83 840 24.81 7.3 45.2 85 4.9 40.9
23:05 1011 29.85 840 24.81 7.3 45.1 86 5 41.1
23:10 1011 29.85 840 24.81 7.2 45 86 5.1 41.1
23:15 1011 29.85 840 24.81 7.2 45 86 5 41.1
23:20 1010 29.83 840 24.81 7.2 44.9 86 5 41.1
23:25 1010 29.83 840 24.81 7.1 44.8 87 5.1 41.2
23:30 1010 29.83 840 24.81 7 44.6 87 5.1 41.1
23:35 1010 29.83 840 24.81 7 44.6 88 5.1 41.2
23:40 1010 29.83 839 24.78 7 44.7 88 5.2 41.3
23:45 1010 29.83 839 24.78 7 44.6 88 5.2 41.4
23:50 1010 29.83 839 24.78 7 44.6 88 5.2 41.4
23:55 1010 29.83 839 24.78 7 44.5 89 5.2 41.4
24:00 1010 29.83 839 24.78 7 44.5 88 5.2 41.3